Etusivu
METAR-TAF:

METAR-TAF

Lentoasemat :

Kapkaupungin kansainvälinen lentoasema

Kapkaupunki, Etelä-Afrikka

Leveyspiiri: 33-59S, Pituuspiiri: 018-36E, korkeus merenpinnasta: 42 m

Tämänhetkinen sää

Tämä raportti tehtiin 25 minuuttia sitten, kello 04.00 UTC
Tuuli 11 kn pohjoisesta
Lämpötila 12°C
Kosteus 88%
Ilmanpaine 1018 hPa
Näkyvyys 10 km tai enemmän
Hajonneita pilviä 3000 ft:n korkeudessa

METAR: FACT 190400Z 36011KT 9999 BKN030 12/10 Q1018 NOSIG

Aika: 06:25 (04:25 UTC)

Sääennuste

Tämä raportti tehtiin 12 tuntia ja 25 minuuttia sitten, kello 16.00 UTC
Ennuste voimassa 18. päivästä klo 18 UTC - 19. päivään klo 24 UTC
Tuuli 15 kn luoteesta
Näkyvyys 10 km tai enemmän
Muutamia pilviä 2000 ft:n korkeudessa
Hajonneita pilviä 3500 ft:n korkeudessa

TAF: FACT 181600Z 1818/1924 32015KT 9999 FEW020 BKN035 TX16/1912Z TN12/1906Z

Säähavainnot ja -ennusteet yli 4000 lentoasemalta (METAR- ja TAF-raportit).

Käytössä olevat sääasemat on merkitty karttaan keltaisilla ja punaisilla pisteillä.

Aseta hiiri pisteen päälle nähdäksesi sääaseman nimen.

Klikkaa sitten nähdäksesi säähavainnot ja -ennusteet.

Kartan vaihtaminen: klikkaa mustalla rastilla varustettuja vihreitä pisteitä, niin voit zoomata sisään; viivalla varustettua vihreää pistettä, niin voit zoomata ulos tai vihreitä nuolia, niin pääset viereisille kartoille.


METAR-TAF: